AUA3012 LIML-LOWW
Flight info
| Callsign | AUA3012 |
|---|---|
| Flight time | 1h 5m |
| Altitude | 34000 |
| Route | NESTI DCT ARALD/N0421F330 DCT ABTAN ABTAN2W |
| Aircraft | A320/M-SDE3FGHIRWY/LB1 |
Departure
| Time | 2026-04-24 19:24 |
|---|---|
| Airport | Milano Linate Airport (LIML) |
Arrival
| Time | 2026-04-24 20:29 |
|---|---|
| Airport | Vienna International Airport (LOWW) |
| Time | Latitude | Longitude | Altitude | Speed | Heading |
|---|---|---|---|---|---|
| 2026-04-24 18:54 | 45.45973 | 9.27903 | 360 ft | 0 kts | 360° |
| 2026-04-24 19:11 | 45.45966 | 9.27903 | 362 ft | 4 kts | 360° |
| 2026-04-24 19:11 | 45.45940 | 9.27903 | 360 ft | 2 kts | 360° |
| 2026-04-24 19:11 | 45.45919 | 9.27900 | 360 ft | 4 kts | 35° |
| 2026-04-24 19:12 | 45.45907 | 9.27873 | 360 ft | 4 kts | 89° |
| 2026-04-24 19:12 | 45.45907 | 9.27885 | 364 ft | 4 kts | 90° |
| 2026-04-24 19:12 | 45.45907 | 9.27905 | 363 ft | 0 kts | 90° |
| 2026-04-24 19:17 | 45.45907 | 9.27911 | 360 ft | 5 kts | 90° |
| 2026-04-24 19:17 | 45.45890 | 9.27977 | 364 ft | 7 kts | 150° |
| 2026-04-24 19:17 | 45.45832 | 9.27984 | 362 ft | 14 kts | 180° |
| 2026-04-24 19:17 | 45.45720 | 9.27982 | 360 ft | 17 kts | 181° |
| 2026-04-24 19:18 | 45.45593 | 9.27980 | 360 ft | 19 kts | 181° |
| 2026-04-24 19:18 | 45.45452 | 9.27977 | 360 ft | 21 kts | 180° |
| 2026-04-24 19:18 | 45.45335 | 9.27940 | 360 ft | 17 kts | 208° |
| 2026-04-24 19:18 | 45.45217 | 9.27873 | 360 ft | 19 kts | 188° |
| 2026-04-24 19:19 | 45.45076 | 9.27880 | 360 ft | 21 kts | 176° |
| 2026-04-24 19:19 | 45.44944 | 9.27902 | 360 ft | 18 kts | 165° |
| 2026-04-24 19:19 | 45.44819 | 9.27941 | 360 ft | 19 kts | 174° |
| 2026-04-24 19:19 | 45.44681 | 9.27957 | 360 ft | 21 kts | 175° |
| 2026-04-24 19:20 | 45.44530 | 9.27973 | 360 ft | 23 kts | 175° |
| 2026-04-24 19:20 | 45.44365 | 9.27991 | 360 ft | 25 kts | 176° |
| 2026-04-24 19:20 | 45.44212 | 9.28006 | 362 ft | 21 kts | 175° |
| 2026-04-24 19:20 | 45.44057 | 9.28024 | 360 ft | 23 kts | 175° |
| 2026-04-24 19:21 | 45.43891 | 9.28042 | 364 ft | 23 kts | 175° |
| 2026-04-24 19:21 | 45.43759 | 9.28056 | 360 ft | 19 kts | 175° |
| 2026-04-24 19:21 | 45.43620 | 9.28070 | 361 ft | 21 kts | 175° |
| 2026-04-24 19:21 | 45.43506 | 9.28083 | 361 ft | 10 kts | 176° |
| 2026-04-24 19:22 | 45.43465 | 9.28063 | 361 ft | 9 kts | 217° |
| 2026-04-24 19:22 | 45.43443 | 9.27967 | 363 ft | 7 kts | 265° |
| 2026-04-24 19:22 | 45.43440 | 9.27905 | 362 ft | 5 kts | 266° |
| 2026-04-24 19:22 | 45.43466 | 9.27826 | 366 ft | 13 kts | 329° |
| 2026-04-24 19:23 | 45.43515 | 9.27812 | 362 ft | 3 kts | 356° |
| 2026-04-24 19:23 | 45.43588 | 9.27805 | 364 ft | 43 kts | 356° |
| 2026-04-24 19:23 | 45.44152 | 9.27743 | 359 ft | 116 kts | 355° |
| 2026-04-24 19:23 | 45.45152 | 9.27627 | 393 ft | 167 kts | 355° |
| 2026-04-24 19:24 | 45.46326 | 9.27493 | 1012 ft | 170 kts | 355° |
| 2026-04-24 19:24 | 45.47505 | 9.27547 | 1757 ft | 172 kts | 5° |
| 2026-04-24 19:24 | 45.48753 | 9.27774 | 2259 ft | 188 kts | 7° |
| 2026-04-24 19:24 | 45.50090 | 9.28038 | 2817 ft | 199 kts | 7° |
| 2026-04-24 19:25 | 45.51500 | 9.28305 | 3395 ft | 210 kts | 7° |
| 2026-04-24 19:25 | 45.52969 | 9.28665 | 3963 ft | 220 kts | 19° |
| 2026-04-24 19:25 | 45.54371 | 9.29673 | 4509 ft | 232 kts | 28° |
| 2026-04-24 19:25 | 45.55855 | 9.30807 | 4978 ft | 253 kts | 28° |
| 2026-04-24 19:26 | 45.57468 | 9.32035 | 5551 ft | 272 kts | 28° |
| 2026-04-24 19:26 | 45.59166 | 9.33321 | 6361 ft | 280 kts | 28° |
| 2026-04-24 19:26 | 45.60905 | 9.34633 | 7244 ft | 286 kts | 28° |
| 2026-04-24 19:26 | 45.62666 | 9.35971 | 8217 ft | 287 kts | 28° |
| 2026-04-24 19:27 | 45.64421 | 9.37322 | 9208 ft | 287 kts | 28° |
| 2026-04-24 19:27 | 45.66176 | 9.38717 | 10082 ft | 291 kts | 33° |
| 2026-04-24 19:27 | 45.67768 | 9.40635 | 10541 ft | 312 kts | 47° |
| 2026-04-24 19:27 | 45.69117 | 9.43193 | 10977 ft | 330 kts | 53° |
| 2026-04-24 19:28 | 45.70466 | 9.45880 | 11771 ft | 334 kts | 53° |
| 2026-04-24 19:28 | 45.71836 | 9.48583 | 12603 ft | 337 kts | 53° |
| 2026-04-24 19:28 | 45.73226 | 9.51301 | 13411 ft | 340 kts | 52° |
| 2026-04-24 19:28 | 45.74617 | 9.54064 | 14154 ft | 344 kts | 56° |
| 2026-04-24 19:29 | 45.76321 | 9.60508 | 15589 ft | 353 kts | 81° |
| 2026-04-24 19:29 | 45.76537 | 9.64029 | 16279 ft | 357 kts | 84° |
| 2026-04-24 19:29 | 45.76721 | 9.67590 | 16957 ft | 360 kts | 84° |
| 2026-04-24 19:30 | 45.76910 | 9.71182 | 17639 ft | 363 kts | 85° |
| 2026-04-24 19:30 | 45.77099 | 9.74797 | 18289 ft | 366 kts | 85° |
| 2026-04-24 19:30 | 45.77290 | 9.78456 | 18929 ft | 369 kts | 85° |
| 2026-04-24 19:30 | 45.77481 | 9.82137 | 19548 ft | 372 kts | 85° |
| 2026-04-24 19:31 | 45.77672 | 9.85851 | 20167 ft | 375 kts | 85° |
| 2026-04-24 19:31 | 45.77865 | 9.89596 | 20757 ft | 378 kts | 85° |
| 2026-04-24 19:31 | 45.78056 | 9.93369 | 21343 ft | 381 kts | 85° |
| 2026-04-24 19:31 | 45.78248 | 9.97176 | 21920 ft | 385 kts | 85° |
| 2026-04-24 19:32 | 45.78444 | 10.01012 | 22498 ft | 387 kts | 85° |
| 2026-04-24 19:32 | 45.78638 | 10.04868 | 23048 ft | 390 kts | 85° |
| 2026-04-24 19:32 | 45.78832 | 10.08764 | 23570 ft | 393 kts | 85° |
| 2026-04-24 19:32 | 45.79024 | 10.12689 | 24103 ft | 396 kts | 85° |
| 2026-04-24 19:33 | 45.79213 | 10.16644 | 24603 ft | 399 kts | 85° |
| 2026-04-24 19:33 | 45.79398 | 10.20622 | 25085 ft | 401 kts | 85° |
| 2026-04-24 19:33 | 45.79581 | 10.24623 | 25566 ft | 404 kts | 85° |
| 2026-04-24 19:33 | 45.79765 | 10.28644 | 26016 ft | 406 kts | 85° |
| 2026-04-24 19:34 | 45.79948 | 10.32691 | 26474 ft | 408 kts | 85° |
| 2026-04-24 19:34 | 45.80132 | 10.36755 | 26908 ft | 410 kts | 85° |
| 2026-04-24 19:34 | 45.80417 | 10.40819 | 27335 ft | 411 kts | 79° |
| 2026-04-24 19:34 | 45.81146 | 10.44777 | 27727 ft | 412 kts | 69° |
| 2026-04-24 19:35 | 45.82290 | 10.48489 | 28133 ft | 413 kts | 64° |
| 2026-04-24 19:35 | 45.83527 | 10.52221 | 28517 ft | 415 kts | 64° |
| 2026-04-24 19:35 | 45.84755 | 10.55979 | 28892 ft | 417 kts | 65° |
| 2026-04-24 19:35 | 45.85980 | 10.59762 | 29246 ft | 419 kts | 65° |
| 2026-04-24 19:36 | 45.87225 | 10.63607 | 29597 ft | 421 kts | 65° |
| 2026-04-24 19:36 | 45.88445 | 10.67375 | 29942 ft | 422 kts | 65° |
| 2026-04-24 19:36 | 45.89684 | 10.71202 | 30284 ft | 424 kts | 65° |
| 2026-04-24 19:36 | 45.90926 | 10.75047 | 30587 ft | 426 kts | 65° |
| 2026-04-24 19:37 | 45.92176 | 10.78916 | 30908 ft | 428 kts | 65° |
| 2026-04-24 19:37 | 45.93429 | 10.82790 | 31219 ft | 429 kts | 65° |
| 2026-04-24 19:37 | 45.94687 | 10.86681 | 31515 ft | 430 kts | 64° |
| 2026-04-24 19:37 | 45.95949 | 10.90582 | 31793 ft | 431 kts | 65° |
| 2026-04-24 19:38 | 45.97210 | 10.94492 | 32154 ft | 430 kts | 64° |
| 2026-04-24 19:38 | 45.98460 | 10.98389 | 32534 ft | 429 kts | 65° |
| 2026-04-24 19:38 | 45.99704 | 11.02280 | 32918 ft | 427 kts | 65° |
| 2026-04-24 19:38 | 46.00939 | 11.06154 | 33277 ft | 427 kts | 65° |
| 2026-04-24 19:39 | 46.02179 | 11.10046 | 33531 ft | 429 kts | 64° |
| 2026-04-24 19:39 | 46.03418 | 11.13945 | 33843 ft | 428 kts | 64° |
| 2026-04-24 19:39 | 46.04660 | 11.17840 | 34105 ft | 428 kts | 64° |
| 2026-04-24 19:40 | 46.07092 | 11.25492 | 34158 ft | 413 kts | 64° |
| 2026-04-24 19:40 | 46.09455 | 11.32965 | 34146 ft | 408 kts | 64° |
| 2026-04-24 19:41 | 46.11808 | 11.40404 | 34174 ft | 408 kts | 64° |
| 2026-04-24 19:41 | 46.14157 | 11.47844 | 34120 ft | 407 kts | 64° |
| 2026-04-24 19:42 | 46.16496 | 11.55275 | 34122 ft | 407 kts | 64° |
| 2026-04-24 19:42 | 46.18826 | 11.62709 | 34134 ft | 407 kts | 65° |
| 2026-04-24 19:43 | 46.21146 | 11.70148 | 34145 ft | 406 kts | 64° |
| 2026-04-24 19:43 | 46.23456 | 11.77580 | 34163 ft | 405 kts | 65° |
| 2026-04-24 19:44 | 46.25758 | 11.85012 | 34170 ft | 405 kts | 65° |
| 2026-04-24 19:44 | 46.28056 | 11.92437 | 34177 ft | 405 kts | 65° |
| 2026-04-24 19:45 | 46.30353 | 11.99861 | 34176 ft | 404 kts | 65° |
| 2026-04-24 19:45 | 46.32644 | 12.07292 | 34163 ft | 404 kts | 65° |
| 2026-04-24 19:46 | 46.34538 | 12.13466 | 34154 ft | 404 kts | 65° |
| 2026-04-24 19:46 | 46.36812 | 12.20912 | 34140 ft | 404 kts | 65° |
| 2026-04-24 19:47 | 46.39082 | 12.28358 | 34131 ft | 404 kts | 65° |
| 2026-04-24 19:47 | 46.41351 | 12.35817 | 34132 ft | 405 kts | 65° |
| 2026-04-24 19:48 | 46.43613 | 12.43283 | 34131 ft | 405 kts | 65° |
| 2026-04-24 19:48 | 46.47006 | 12.54518 | 34124 ft | 405 kts | 65° |
| 2026-04-24 19:49 | 46.51524 | 12.69534 | 34110 ft | 406 kts | 65° |
| 2026-04-24 19:50 | 46.56024 | 12.84612 | 34097 ft | 407 kts | 65° |
| 2026-04-24 19:51 | 46.59393 | 12.95947 | 34097 ft | 407 kts | 65° |
| 2026-04-24 19:52 | 46.62756 | 13.07294 | 34088 ft | 408 kts | 64° |
| 2026-04-24 19:52 | 46.64995 | 13.14877 | 34087 ft | 408 kts | 65° |
| 2026-04-24 19:53 | 46.67226 | 13.22472 | 34088 ft | 408 kts | 65° |
| 2026-04-24 19:53 | 46.69514 | 13.29997 | 33830 ft | 403 kts | 62° |
| 2026-04-24 19:54 | 46.70775 | 13.33626 | 33356 ft | 399 kts | 60° |
| 2026-04-24 19:54 | 46.72082 | 13.37174 | 33102 ft | 397 kts | 59° |
| 2026-04-24 19:54 | 46.73405 | 13.40703 | 33093 ft | 398 kts | 59° |
| 2026-04-24 19:55 | 46.75593 | 13.46627 | 33072 ft | 400 kts | 60° |
| 2026-04-24 19:55 | 46.78590 | 13.55046 | 33073 ft | 400 kts | 61° |
| 2026-04-24 19:56 | 46.81121 | 13.62277 | 33072 ft | 400 kts | 60° |
| 2026-04-24 19:56 | 46.83654 | 13.69506 | 33071 ft | 400 kts | 60° |
| 2026-04-24 19:57 | 46.86172 | 13.76683 | 33072 ft | 400 kts | 60° |
| 2026-04-24 19:57 | 46.88710 | 13.83917 | 33072 ft | 400 kts | 60° |
| 2026-04-24 19:58 | 46.91239 | 13.91177 | 33073 ft | 401 kts | 61° |
| 2026-04-24 19:58 | 46.93761 | 13.98443 | 33070 ft | 400 kts | 60° |
| 2026-04-24 19:59 | 46.96289 | 14.05706 | 33073 ft | 400 kts | 60° |
| 2026-04-24 19:59 | 46.98813 | 14.12975 | 33071 ft | 400 kts | 60° |
| 2026-04-24 20:00 | 47.01330 | 14.20260 | 33073 ft | 401 kts | 60° |
| 2026-04-24 20:00 | 47.03841 | 14.27551 | 33073 ft | 401 kts | 60° |
| 2026-04-24 20:01 | 47.06352 | 14.34852 | 33089 ft | 401 kts | 60° |
| 2026-04-24 20:01 | 47.08857 | 14.42171 | 33091 ft | 402 kts | 60° |
| 2026-04-24 20:02 | 47.10925 | 14.48331 | 33101 ft | 402 kts | 64° |
| 2026-04-24 20:02 | 47.12735 | 14.57555 | 33096 ft | 406 kts | 72° |
| 2026-04-24 20:03 | 47.14124 | 14.65594 | 33109 ft | 406 kts | 72° |
| 2026-04-24 20:03 | 47.15512 | 14.73639 | 33109 ft | 406 kts | 72° |
| 2026-04-24 20:04 | 47.16887 | 14.81695 | 33103 ft | 407 kts | 72° |
| 2026-04-24 20:04 | 47.17571 | 14.85725 | 32692 ft | 406 kts | 72° |
| 2026-04-24 20:04 | 47.18252 | 14.89746 | 32177 ft | 404 kts | 72° |
| 2026-04-24 20:04 | 47.18928 | 14.93735 | 31676 ft | 401 kts | 72° |
| 2026-04-24 20:05 | 47.19602 | 14.97711 | 31166 ft | 399 kts | 73° |
| 2026-04-24 20:05 | 47.20268 | 15.01654 | 30678 ft | 397 kts | 73° |
| 2026-04-24 20:05 | 47.20928 | 15.05582 | 30196 ft | 394 kts | 73° |
| 2026-04-24 20:05 | 47.21583 | 15.09483 | 29724 ft | 392 kts | 73° |
| 2026-04-24 20:06 | 47.22231 | 15.13360 | 29262 ft | 389 kts | 73° |
| 2026-04-24 20:06 | 47.22873 | 15.17220 | 28800 ft | 387 kts | 73° |
| 2026-04-24 20:06 | 47.23511 | 15.21042 | 28360 ft | 384 kts | 73° |
| 2026-04-24 20:06 | 47.24145 | 15.24843 | 27928 ft | 381 kts | 73° |
| 2026-04-24 20:07 | 47.24562 | 15.27346 | 27621 ft | 379 kts | 73° |
| 2026-04-24 20:07 | 47.25391 | 15.32365 | 27029 ft | 376 kts | 73° |
| 2026-04-24 20:07 | 47.26006 | 15.36091 | 26577 ft | 373 kts | 73° |
| 2026-04-24 20:07 | 47.26620 | 15.39795 | 26133 ft | 371 kts | 73° |
| 2026-04-24 20:08 | 47.27227 | 15.43480 | 25669 ft | 370 kts | 73° |
| 2026-04-24 20:08 | 47.27829 | 15.47144 | 25203 ft | 368 kts | 73° |
| 2026-04-24 20:08 | 47.28428 | 15.50802 | 24730 ft | 366 kts | 73° |
| 2026-04-24 20:08 | 47.29020 | 15.54435 | 24248 ft | 365 kts | 73° |
| 2026-04-24 20:09 | 47.29609 | 15.58062 | 23768 ft | 363 kts | 73° |
| 2026-04-24 20:09 | 47.30191 | 15.61668 | 23291 ft | 361 kts | 73° |
| 2026-04-24 20:09 | 47.30773 | 15.65268 | 22820 ft | 360 kts | 73° |
| 2026-04-24 20:09 | 47.31356 | 15.68849 | 22357 ft | 359 kts | 73° |
| 2026-04-24 20:10 | 47.31935 | 15.72422 | 21892 ft | 358 kts | 73° |
| 2026-04-24 20:10 | 47.32511 | 15.75984 | 21440 ft | 356 kts | 73° |
| 2026-04-24 20:10 | 47.33082 | 15.79533 | 20989 ft | 355 kts | 73° |
| 2026-04-24 20:10 | 47.33649 | 15.83063 | 20545 ft | 353 kts | 73° |
| 2026-04-24 20:11 | 47.34214 | 15.86579 | 20095 ft | 352 kts | 73° |
| 2026-04-24 20:11 | 47.34773 | 15.90075 | 19657 ft | 349 kts | 73° |
| 2026-04-24 20:11 | 47.35324 | 15.93545 | 19224 ft | 347 kts | 73° |
| 2026-04-24 20:11 | 47.35884 | 15.97007 | 18794 ft | 345 kts | 71° |
| 2026-04-24 20:12 | 47.36798 | 16.00220 | 18372 ft | 337 kts | 55° |
| 2026-04-24 20:12 | 47.38230 | 16.02902 | 17961 ft | 329 kts | 40° |
| 2026-04-24 20:12 | 47.40035 | 16.04886 | 17659 ft | 320 kts | 26° |
| 2026-04-24 20:12 | 47.42060 | 16.06143 | 17352 ft | 314 kts | 16° |
| 2026-04-24 20:13 | 47.44128 | 16.07164 | 17045 ft | 313 kts | 16° |
| 2026-04-24 20:13 | 47.46188 | 16.08186 | 16739 ft | 312 kts | 16° |
| 2026-04-24 20:13 | 47.48237 | 16.09207 | 16428 ft | 310 kts | 15° |
| 2026-04-24 20:13 | 47.50270 | 16.10222 | 16129 ft | 308 kts | 15° |
| 2026-04-24 20:14 | 47.52297 | 16.11229 | 15828 ft | 306 kts | 15° |
| 2026-04-24 20:14 | 47.54314 | 16.12229 | 15529 ft | 305 kts | 15° |
| 2026-04-24 20:14 | 47.56325 | 16.13228 | 15219 ft | 304 kts | 15° |
| 2026-04-24 20:14 | 47.58327 | 16.14224 | 14927 ft | 304 kts | 15° |
| 2026-04-24 20:15 | 47.60325 | 16.15217 | 14639 ft | 302 kts | 15° |
| 2026-04-24 20:15 | 47.62315 | 16.16211 | 14331 ft | 301 kts | 15° |
| 2026-04-24 20:15 | 47.64296 | 16.17201 | 14029 ft | 300 kts | 15° |
| 2026-04-24 20:15 | 47.66270 | 16.18184 | 13739 ft | 299 kts | 15° |
| 2026-04-24 20:16 | 47.68236 | 16.19163 | 13435 ft | 297 kts | 15° |
| 2026-04-24 20:16 | 47.70192 | 16.20144 | 13153 ft | 296 kts | 15° |
| 2026-04-24 20:16 | 47.72139 | 16.21123 | 12863 ft | 295 kts | 15° |
| 2026-04-24 20:16 | 47.74075 | 16.22133 | 12573 ft | 296 kts | 20° |
| 2026-04-24 20:17 | 47.75825 | 16.23759 | 12282 ft | 301 kts | 37° |
| 2026-04-24 20:17 | 47.78033 | 16.29084 | 11683 ft | 311 kts | 66° |
| 2026-04-24 20:17 | 47.78739 | 16.32123 | 11380 ft | 310 kts | 67° |
| 2026-04-24 20:18 | 47.79207 | 16.34131 | 11181 ft | 309 kts | 67° |
| 2026-04-24 20:18 | 47.80152 | 16.38169 | 10759 ft | 309 kts | 66° |
| 2026-04-24 20:18 | 47.80859 | 16.41177 | 10435 ft | 308 kts | 66° |
| 2026-04-24 20:18 | 47.81565 | 16.44177 | 10130 ft | 306 kts | 66° |
| 2026-04-24 20:19 | 47.82263 | 16.47156 | 9834 ft | 303 kts | 67° |
| 2026-04-24 20:19 | 47.82953 | 16.50111 | 9542 ft | 302 kts | 67° |
| 2026-04-24 20:19 | 47.83641 | 16.53056 | 9248 ft | 301 kts | 67° |
| 2026-04-24 20:19 | 47.84324 | 16.55999 | 8961 ft | 300 kts | 67° |
| 2026-04-24 20:20 | 47.85000 | 16.58924 | 8663 ft | 298 kts | 67° |
| 2026-04-24 20:20 | 47.85673 | 16.61831 | 8371 ft | 297 kts | 67° |
| 2026-04-24 20:20 | 47.86343 | 16.64725 | 8087 ft | 294 kts | 67° |
| 2026-04-24 20:20 | 47.87011 | 16.67594 | 7798 ft | 292 kts | 67° |
| 2026-04-24 20:21 | 47.87674 | 16.70449 | 7506 ft | 291 kts | 67° |
| 2026-04-24 20:21 | 47.88329 | 16.73290 | 7242 ft | 289 kts | 68° |
| 2026-04-24 20:21 | 47.88979 | 16.76116 | 6966 ft | 287 kts | 68° |
| 2026-04-24 20:21 | 47.89624 | 16.78927 | 6692 ft | 286 kts | 67° |
| 2026-04-24 20:22 | 47.90322 | 16.81679 | 6414 ft | 281 kts | 59° |
| 2026-04-24 20:22 | 47.91415 | 16.84033 | 6140 ft | 272 kts | 43° |
| 2026-04-24 20:22 | 47.92839 | 16.85773 | 5876 ft | 259 kts | 27° |
| 2026-04-24 20:22 | 47.94420 | 16.86972 | 5587 ft | 251 kts | 22° |
| 2026-04-24 20:23 | 47.95974 | 16.88113 | 5298 ft | 246 kts | 22° |
| 2026-04-24 20:23 | 47.97489 | 16.89224 | 5049 ft | 239 kts | 20° |
| 2026-04-24 20:23 | 47.99050 | 16.89622 | 4815 ft | 224 kts | 348° |
| 2026-04-24 20:23 | 48.00408 | 16.88681 | 4556 ft | 214 kts | 316° |
| 2026-04-24 20:24 | 48.00989 | 16.87515 | 4386 ft | 211 kts | 295° |
| 2026-04-24 20:24 | 48.01721 | 16.84814 | 4049 ft | 209 kts | 297° |
| 2026-04-24 20:24 | 48.02372 | 16.82885 | 3798 ft | 207 kts | 299° |
| 2026-04-24 20:24 | 48.03059 | 16.80991 | 3541 ft | 207 kts | 303° |
| 2026-04-24 20:25 | 48.03785 | 16.79140 | 3299 ft | 207 kts | 301° |
| 2026-04-24 20:25 | 48.04453 | 16.77232 | 3081 ft | 207 kts | 298° |
| 2026-04-24 20:25 | 48.05092 | 16.75306 | 2996 ft | 204 kts | 298° |
| 2026-04-24 20:25 | 48.05701 | 16.73453 | 2867 ft | 195 kts | 298° |
| 2026-04-24 20:26 | 48.06291 | 16.71659 | 2681 ft | 189 kts | 298° |
| 2026-04-24 20:26 | 48.06859 | 16.69924 | 2415 ft | 183 kts | 297° |
| 2026-04-24 20:26 | 48.07411 | 16.68242 | 2170 ft | 176 kts | 297° |
| 2026-04-24 20:26 | 48.07925 | 16.66676 | 1963 ft | 158 kts | 296° |
| 2026-04-24 20:27 | 48.08383 | 16.65277 | 1751 ft | 143 kts | 296° |
| 2026-04-24 20:27 | 48.08810 | 16.63969 | 1562 ft | 137 kts | 296° |
| 2026-04-24 20:27 | 48.09227 | 16.62698 | 1364 ft | 135 kts | 296° |
| 2026-04-24 20:27 | 48.09639 | 16.61441 | 1183 ft | 134 kts | 296° |
| 2026-04-24 20:28 | 48.10047 | 16.60192 | 1005 ft | 133 kts | 296° |
| 2026-04-24 20:28 | 48.10456 | 16.58946 | 845 ft | 134 kts | 296° |
| 2026-04-24 20:28 | 48.10724 | 16.58118 | 728 ft | 133 kts | 295° |
| 2026-04-24 20:28 | 48.11120 | 16.56897 | 614 ft | 123 kts | 296° |
| 2026-04-24 20:29 | 48.11431 | 16.55952 | 620 ft | 77 kts | 296° |
| 2026-04-24 20:29 | 48.11596 | 16.55466 | 613 ft | 32 kts | 303° |
| 2026-04-24 20:29 | 48.11721 | 16.55258 | 619 ft | 21 kts | 316° |
| 2026-04-24 20:29 | 48.11809 | 16.55152 | 618 ft | 10 kts | 334° |
| 2026-04-24 20:30 | 48.11834 | 16.55139 | 609 ft | 0 kts | 348° |
| 2026-04-24 20:30 | 48.11837 | 16.55139 | 619 ft | 2 kts | 350° |
| 2026-04-24 20:30 | 48.11877 | 16.55166 | 609 ft | 8 kts | 54° |
| 2026-04-24 20:31 | 48.11871 | 16.55239 | 609 ft | 10 kts | 112° |
| 2026-04-24 20:31 | 48.11835 | 16.55354 | 622 ft | 12 kts | 116° |
| 2026-04-24 20:31 | 48.11800 | 16.55461 | 615 ft | 11 kts | 116° |
| 2026-04-24 20:31 | 48.11769 | 16.55557 | 620 ft | 10 kts | 116° |
| 2026-04-24 20:32 | 48.11742 | 16.55642 | 609 ft | 9 kts | 116° |
| 2026-04-24 20:32 | 48.11717 | 16.55717 | 621 ft | 8 kts | 116° |
| 2026-04-24 20:32 | 48.11695 | 16.55783 | 615 ft | 7 kts | 116° |
| 2026-04-24 20:32 | 48.11662 | 16.55884 | 613 ft | 14 kts | 116° |
| 2026-04-24 20:33 | 48.11621 | 16.56011 | 614 ft | 13 kts | 116° |
| 2026-04-24 20:33 | 48.11590 | 16.56132 | 609 ft | 12 kts | 91° |
| 2026-04-24 20:33 | 48.11636 | 16.56216 | 613 ft | 10 kts | 39° |
| 2026-04-24 20:33 | 48.11692 | 16.56268 | 615 ft | 9 kts | 27° |
| 2026-04-24 20:34 | 48.11745 | 16.56309 | 612 ft | 9 kts | 34° |
| 2026-04-24 20:34 | 48.11751 | 16.56390 | 620 ft | 9 kts | 109° |
| 2026-04-24 20:34 | 48.11720 | 16.56485 | 621 ft | 10 kts | 116° |
| 2026-04-24 20:34 | 48.11691 | 16.56573 | 612 ft | 9 kts | 116° |
| 2026-04-24 20:35 | 48.11667 | 16.56607 | 617 ft | 3 kts | 184° |
| 2026-04-24 20:35 | 48.11643 | 16.56593 | 620 ft | 5 kts | 205° |
| 2026-04-24 20:35 | 48.11616 | 16.56573 | 621 ft | 4 kts | 206° |
| 2026-04-24 20:35 | 48.11612 | 16.56569 | 619 ft | 0 kts | 206° |